Airfield :
LOGIN :

Register | Disclaimer

   EN    FR    IT 

 










Legend :    VFR   Marginal VFR   IFR   Intensive IFR   Very Intensive IFR
Visi :
Ceiling :
>= 8 km
>= 3000ft
5 to 8 km
1000 to 3000 ft
1500m to 5 km
500 to 1000 ft
800 to 1500m
200 to 500 ft
< 800m
< 200 ft
Symbols :   Thunderstorms  Fog  Heavy snow  Heavy precipitations  Wind > 20 kt
SIGMETs :     Misc.  Thunderstorms  Icing  Turbulence  Mountain Waves  Volcanic Ashes







- Airport Elevation : 468 ft
- IATA code : GRO


LEGE - Girona Costa Brava

CURRENT METAR :
  • 172230Z 04007KT 9999 -RA BKN060 07/07 Q1017

EXPIRED METARs :
  • 172200Z 05003KT 9999 -RA BKN050 07/07 Q1017
  • 172130Z 03003KT 360V060 9999 -RA BKN050 07/06 Q1017
  • 172100Z 33003KT 300V010 9999 BKN050 08/05 Q1017
  • 172030Z 35004KT 9999 BKN050 08/05 Q1017
  • 172000Z 36003KT 330V030 9999 BKN050 09/04 Q1017

TAF TAF LEGE
Valid from the 17 at 18:00 until the 18 at 18:00 UTC


171700Z 1718/1818 VRB04KT 9999 FEW020 TX13/1812Z TN00/1806Z
PROB30
TEMPO 1720/1724 4000 RA BKN025
TEMPO 1722/1808 3000 BR BKN020
PROB40
TEMPO 1804/1808 0500 BCFG
BECMG 1810/1812 18007KT
No reported NOTAMs for that airfield.



MET'MAP, your aeronautical weather chart ! - Copyright ORBIFLY December 2007 - Disclaimer

ORBIFLY MET'MAP TEAM :

Programming & Development : Alexandra Zaïnal
Concept & Development : Baudouin d'Aumeries
Co-Development & Prog : Marc-Olivier Méhu
Technical & hardware support : Manuel Goepfert

Contact : metmap@orbifly.com




SOURCES & CREDITS :

   NOAA